sensor_id;sensor_type;location;lat;lon;timestamp;P1;durP1;ratioP1;P2;durP2;ratioP2
49812;SDS011;35706;52.100;5.056;2022-12-07T22:04:44;10.82;;;1.38;;
49812;SDS011;35706;52.100;5.056;2022-12-07T22:05:44;2.60;;;0.60;;
49812;SDS011;35706;52.100;5.056;2022-12-07T22:06:44;8.47;;;0.70;;
49812;SDS011;35706;52.100;5.056;2022-12-07T22:07:45;6.90;;;0.73;;
49812;SDS011;35706;52.100;5.056;2022-12-07T22:08:46;4.00;;;0.40;;
49812;SDS011;35706;52.100;5.056;2022-12-07T22:09:46;2.13;;;0.50;;
49812;SDS011;35706;52.100;5.056;2022-12-07T22:10:47;1.30;;;0.40;;
49812;SDS011;35706;52.100;5.056;2022-12-07T22:11:47;4.53;;;0.40;;
49812;SDS011;35706;52.100;5.056;2022-12-07T22:12:48;2.40;;;0.40;;
49812;SDS011;35706;52.100;5.056;2022-12-07T22:13:48;3.40;;;0.50;;
49812;SDS011;35706;52.100;5.056;2022-12-07T22:15:07;6.00;;;0.50;;
49812;SDS011;35706;52.100;5.056;2022-12-07T22:16:09;2.60;;;0.50;;
49812;SDS011;35706;52.100;5.056;2022-12-07T22:17:09;1.97;;;0.57;;
49812;SDS011;35706;52.100;5.056;2022-12-07T22:18:09;2.00;;;0.40;;
49812;SDS011;35706;52.100;5.056;2022-12-07T22:19:10;2.33;;;0.80;;
49812;SDS011;35706;52.100;5.056;2022-12-07T22:20:10;3.40;;;0.50;;
49812;SDS011;35706;52.100;5.056;2022-12-07T22:21:10;3.17;;;0.60;;
49812;SDS011;35706;52.100;5.056;2022-12-07T22:22:12;3.80;;;0.50;;
49812;SDS011;35706;52.100;5.056;2022-12-07T22:23:14;2.43;;;0.50;;
49812;SDS011;35706;52.100;5.056;2022-12-07T22:24:14;2.77;;;0.53;;
49812;SDS011;35706;52.100;5.056;2022-12-07T22:25:15;2.60;;;0.50;;
49812;SDS011;35706;52.100;5.056;2022-12-07T22:26:16;3.73;;;0.63;;
49812;SDS011;35706;52.100;5.056;2022-12-07T22:27:16;3.90;;;0.50;;
49812;SDS011;35706;52.100;5.056;2022-12-07T22:28:17;2.53;;;0.47;;
49812;SDS011;35706;52.100;5.056;2022-12-07T22:29:18;1.93;;;0.50;;
49812;SDS011;35706;52.100;5.056;2022-12-07T22:30:19;2.47;;;0.50;;
49812;SDS011;35706;52.100;5.056;2022-12-07T22:31:20;2.83;;;0.70;;
49812;SDS011;35706;52.100;5.056;2022-12-07T22:32:21;2.47;;;0.50;;
49812;SDS011;35706;52.100;5.056;2022-12-07T22:33:21;2.73;;;0.50;;
49812;SDS011;35706;52.100;5.056;2022-12-07T22:34:21;1.03;;;0.40;;
49812;SDS011;35706;52.100;5.056;2022-12-07T22:35:22;1.10;;;0.40;;
49812;SDS011;35706;52.100;5.056;2022-12-07T22:36:22;1.20;;;0.40;;
49812;SDS011;35706;52.100;5.056;2022-12-07T22:37:22;2.63;;;0.50;;
49812;SDS011;35706;52.100;5.056;2022-12-07T22:38:23;4.53;;;0.40;;
49812;SDS011;35706;52.100;5.056;2022-12-07T22:39:23;2.57;;;0.40;;
49812;SDS011;35706;52.100;5.056;2022-12-07T22:40:23;0.73;;;0.30;;
49812;SDS011;35706;52.100;5.056;2022-12-07T22:42:25;2.10;;;0.40;;
49812;SDS011;35706;52.100;5.056;2022-12-07T22:43:26;2.47;;;0.30;;
49812;SDS011;35706;52.100;5.056;2022-12-07T22:44:26;1.43;;;0.30;;
49812;SDS011;35706;52.100;5.056;2022-12-07T22:45:26;3.27;;;0.30;;
49812;SDS011;35706;52.100;5.056;2022-12-07T22:46:26;4.47;;;0.33;;
49812;SDS011;35706;52.100;5.056;2022-12-07T22:47:27;3.67;;;0.30;;
49812;SDS011;35706;52.100;5.056;2022-12-07T22:48:27;2.00;;;0.20;;
49812;SDS011;35706;52.100;5.056;2022-12-07T22:49:28;2.30;;;0.30;;
49812;SDS011;35706;52.100;5.056;2022-12-07T22:50:28;1.10;;;0.20;;
49812;SDS011;35706;52.100;5.056;2022-12-07T22:51:32;2.00;;;0.30;;
49812;SDS011;35706;52.100;5.056;2022-12-07T22:52:34;2.17;;;0.27;;
49812;SDS011;35706;52.100;5.056;2022-12-07T22:53:35;2.00;;;0.30;;
49812;SDS011;35706;52.100;5.056;2022-12-07T22:54:35;1.13;;;0.30;;
49812;SDS011;35706;52.100;5.056;2022-12-07T22:55:39;2.03;;;0.20;;
49812;SDS011;35706;52.100;5.056;2022-12-07T22:56:39;2.37;;;0.30;;
49812;SDS011;35706;52.100;5.056;2022-12-07T22:57:39;1.13;;;0.30;;
49812;SDS011;35706;52.100;5.056;2022-12-07T22:58:40;3.23;;;0.30;;
49812;SDS011;35706;52.100;5.056;2022-12-07T22:59:40;3.80;;;0.30;;
49812;SDS011;35706;52.100;5.056;2022-12-07T23:00:41;3.10;;;0.30;;
49812;SDS011;35706;52.100;5.056;2022-12-07T23:01:41;5.40;;;0.30;;
49812;SDS011;35706;52.100;5.056;2022-12-07T23:02:44;2.60;;;0.33;;
49812;SDS011;35706;52.100;5.056;2022-12-07T23:03:45;2.50;;;0.40;;
49812;SDS011;35706;52.100;5.056;2022-12-07T23:04:46;4.67;;;0.40;;
49812;SDS011;35706;52.100;5.056;2022-12-07T23:05:47;2.40;;;0.30;;
49812;SDS011;35706;52.100;5.056;2022-12-07T23:06:48;1.30;;;0.40;;
49812;SDS011;35706;52.100;5.056;2022-12-07T23:07:48;5.30;;;0.40;;
49812;SDS011;35706;52.100;5.056;2022-12-07T23:08:49;1.53;;;0.30;;
49812;SDS011;35706;52.100;5.056;2022-12-07T23:09:49;2.77;;;0.40;;
49812;SDS011;35706;52.100;5.056;2022-12-07T23:10:50;2.00;;;0.40;;
49812;SDS011;35706;52.100;5.056;2022-12-07T23:11:50;1.60;;;0.43;;
49812;SDS011;35706;52.100;5.056;2022-12-07T23:13:12;3.87;;;0.50;;
49812;SDS011;35706;52.100;5.056;2022-12-07T23:14:34;4.90;;;0.50;;
49812;SDS011;35706;52.100;5.056;2022-12-07T23:15:36;2.30;;;0.50;;
49812;SDS011;35706;52.100;5.056;2022-12-07T23:16:36;3.20;;;0.50;;
49812;SDS011;35706;52.100;5.056;2022-12-07T23:17:37;1.80;;;0.50;;
49812;SDS011;35706;52.100;5.056;2022-12-07T23:18:37;2.50;;;0.60;;
49812;SDS011;35706;52.100;5.056;2022-12-07T23:19:39;5.00;;;0.50;;
49812;SDS011;35706;52.100;5.056;2022-12-07T23:20:39;1.30;;;0.50;;
49812;SDS011;35706;52.100;5.056;2022-12-07T23:21:39;2.30;;;0.50;;
49812;SDS011;35706;52.100;5.056;2022-12-07T23:22:40;1.80;;;0.47;;
49812;SDS011;35706;52.100;5.056;2022-12-07T23:23:40;1.73;;;0.63;;
49812;SDS011;35706;52.100;5.056;2022-12-07T23:24:41;6.90;;;0.50;;
49812;SDS011;35706;52.100;5.056;2022-12-07T23:25:41;1.93;;;0.50;;
49812;SDS011;35706;52.100;5.056;2022-12-07T23:26:42;1.30;;;0.50;;
49812;SDS011;35706;52.100;5.056;2022-12-07T23:27:43;3.87;;;0.60;;
49812;SDS011;35706;52.100;5.056;2022-12-07T23:28:43;3.33;;;0.67;;
49812;SDS011;35706;52.100;5.056;2022-12-07T23:29:44;3.37;;;0.60;;
49812;SDS011;35706;52.100;5.056;2022-12-07T23:30:44;2.37;;;0.60;;
49812;SDS011;35706;52.100;5.056;2022-12-07T23:31:45;4.20;;;0.73;;
49812;SDS011;35706;52.100;5.056;2022-12-07T23:32:46;2.87;;;0.60;;
49812;SDS011;35706;52.100;5.056;2022-12-07T23:33:46;2.77;;;0.70;;
49812;SDS011;35706;52.100;5.056;2022-12-07T23:34:47;2.30;;;0.77;;
49812;SDS011;35706;52.100;5.056;2022-12-07T23:35:47;4.97;;;0.73;;
49812;SDS011;35706;52.100;5.056;2022-12-07T23:36:47;2.10;;;0.80;;
49812;SDS011;35706;52.100;5.056;2022-12-07T23:37:48;4.10;;;0.80;;
49812;SDS011;35706;52.100;5.056;2022-12-07T23:38:49;3.50;;;0.90;;
49812;SDS011;35706;52.100;5.056;2022-12-07T23:39:50;2.00;;;0.80;;
49812;SDS011;35706;52.100;5.056;2022-12-07T23:40:51;4.13;;;1.10;;
49812;SDS011;35706;52.100;5.056;2022-12-07T23:41:51;3.00;;;0.90;;
49812;SDS011;35706;52.100;5.056;2022-12-07T23:42:51;3.57;;;0.80;;
49812;SDS011;35706;52.100;5.056;2022-12-07T23:43:55;1.97;;;0.90;;
49812;SDS011;35706;52.100;5.056;2022-12-07T23:44:57;3.30;;;0.80;;
49812;SDS011;35706;52.100;5.056;2022-12-07T23:45:57;2.33;;;0.90;;
49812;SDS011;35706;52.100;5.056;2022-12-07T23:46:57;3.73;;;1.17;;
49812;SDS011;35706;52.100;5.056;2022-12-07T23:47:58;3.40;;;1.20;;
49812;SDS011;35706;52.100;5.056;2022-12-07T23:48:59;3.33;;;0.80;;
49812;SDS011;35706;52.100;5.056;2022-12-07T23:50:00;4.00;;;1.00;;
49812;SDS011;35706;52.100;5.056;2022-12-07T23:51:03;4.23;;;0.80;;
49812;SDS011;35706;52.100;5.056;2022-12-07T23:52:03;5.80;;;1.10;;
49812;SDS011;35706;52.100;5.056;2022-12-07T23:53:04;3.43;;;0.90;;
49812;SDS011;35706;52.100;5.056;2022-12-07T23:54:04;7.50;;;1.10;;
49812;SDS011;35706;52.100;5.056;2022-12-07T23:55:05;4.70;;;1.10;;
49812;SDS011;35706;52.100;5.056;2022-12-07T23:56:05;9.03;;;1.00;;
49812;SDS011;35706;52.100;5.056;2022-12-07T23:57:10;3.03;;;0.97;;
49812;SDS011;35706;52.100;5.056;2022-12-07T23:58:10;3.33;;;1.10;;
49812;SDS011;35706;52.100;5.056;2022-12-07T23:59:11;3.47;;;0.90;;
